sensor_id;sensor_type;location;lat;lon;timestamp;pressure;altitude;pressure_sealevel;temperature;humidity
57827;BME280;43656;57.746;11.780;2023-02-23T00:01:10;101194.53;;;6.31;72.26
57827;BME280;43656;57.746;11.780;2023-02-23T00:03:35;101222.13;;;6.40;72.84
57827;BME280;43656;57.746;11.780;2023-02-23T00:06:04;101214.81;;;6.50;72.30
57827;BME280;43656;57.746;11.780;2023-02-23T00:08:29;101213.78;;;6.43;72.80
57827;BME280;43656;57.746;11.780;2023-02-23T00:10:55;101212.47;;;6.47;72.89
57827;BME280;43656;57.746;11.780;2023-02-23T00:13:24;101211.31;;;6.50;72.65
57827;BME280;43656;57.746;11.780;2023-02-23T00:15:49;101209.97;;;6.54;72.96
57827;BME280;43656;57.746;11.780;2023-02-23T00:18:15;101203.44;;;6.48;72.89
57827;BME280;43656;57.746;11.780;2023-02-23T00:20:41;101202.78;;;6.46;73.29
57827;BME280;43656;57.746;11.780;2023-02-23T00:23:11;101173.97;;;6.32;73.20
57827;BME280;43656;57.746;11.780;2023-02-23T00:25:37;101198.91;;;6.41;73.80
57827;BME280;43656;57.746;11.780;2023-02-23T00:28:03;101195.91;;;6.44;73.62
57827;BME280;43656;57.746;11.780;2023-02-23T00:30:31;101195.09;;;6.51;73.60
57827;BME280;43656;57.746;11.780;2023-02-23T00:32:58;101188.72;;;6.44;73.61
57827;BME280;43656;57.746;11.780;2023-02-23T00:35:24;101183.41;;;6.52;73.70
57827;BME280;43656;57.746;11.780;2023-02-23T00:37:49;101167.00;;;6.47;73.57
57827;BME280;43656;57.746;11.780;2023-02-23T00:40:16;101176.03;;;6.46;74.21
57827;BME280;43656;57.746;11.780;2023-02-23T00:42:46;101170.84;;;6.45;74.69
57827;BME280;43656;57.746;11.780;2023-02-23T00:45:12;101173.84;;;6.42;75.10
57827;BME280;43656;57.746;11.780;2023-02-23T00:47:40;101169.69;;;6.39;75.77
57827;BME280;43656;57.746;11.780;2023-02-23T00:50:13;101168.50;;;6.42;75.25
57827;BME280;43656;57.746;11.780;2023-02-23T00:52:40;101147.75;;;6.35;74.86
57827;BME280;43656;57.746;11.780;2023-02-23T00:55:07;101161.81;;;6.38;75.73
57827;BME280;43656;57.746;11.780;2023-02-23T00:57:34;101167.66;;;6.33;75.80
57827;BME280;43656;57.746;11.780;2023-02-23T00:59:59;101155.78;;;6.27;76.37
57827;BME280;43656;57.746;11.780;2023-02-23T01:02:27;101156.28;;;6.31;76.74
57827;BME280;43656;57.746;11.780;2023-02-23T01:04:55;101152.59;;;6.32;76.79
57827;BME280;43656;57.746;11.780;2023-02-23T01:07:21;101140.88;;;6.25;77.06
57827;BME280;43656;57.746;11.780;2023-02-23T01:09:50;101156.09;;;6.24;77.27
57827;BME280;43656;57.746;11.780;2023-02-23T01:12:15;101132.16;;;6.06;77.92
57827;BME280;43656;57.746;11.780;2023-02-23T01:14:41;101132.69;;;6.10;78.56
57827;BME280;43656;57.746;11.780;2023-02-23T01:17:06;101144.00;;;6.12;79.14
57827;BME280;43656;57.746;11.780;2023-02-23T01:19:32;101143.03;;;6.13;78.91
57827;BME280;43656;57.746;11.780;2023-02-23T01:21:59;101137.88;;;6.20;78.31
57827;BME280;43656;57.746;11.780;2023-02-23T01:24:27;101112.91;;;5.95;79.35
57827;BME280;43656;57.746;11.780;2023-02-23T01:26:53;101133.81;;;6.07;79.62
57827;BME280;43656;57.746;11.780;2023-02-23T01:29:18;101128.63;;;6.06;79.99
57827;BME280;43656;57.746;11.780;2023-02-23T01:31:46;101100.66;;;5.84;80.95
57827;BME280;43656;57.746;11.780;2023-02-23T01:34:13;101117.47;;;6.10;80.23
57827;BME280;43656;57.746;11.780;2023-02-23T01:36:40;101116.78;;;6.00;80.74
57827;BME280;43656;57.746;11.780;2023-02-23T01:39:09;101114.75;;;6.02;81.02
57827;BME280;43656;57.746;11.780;2023-02-23T01:41:37;101098.81;;;5.84;81.17
57827;BME280;43656;57.746;11.780;2023-02-23T01:46:41;101104.41;;;5.99;81.54
57827;BME280;43656;57.746;11.780;2023-02-23T01:49:13;101102.41;;;5.93;81.75
57827;BME280;43656;57.746;11.780;2023-02-23T01:51:42;101099.66;;;5.85;82.52
57827;BME280;43656;57.746;11.780;2023-02-23T01:54:14;101103.47;;;5.82;83.05
57827;BME280;43656;57.746;11.780;2023-02-23T01:56:44;101091.63;;;5.85;83.40
57827;BME280;43656;57.746;11.780;2023-02-23T01:59:12;101087.84;;;5.96;83.25
57827;BME280;43656;57.746;11.780;2023-02-23T02:01:40;101056.59;;;5.80;82.89
57827;BME280;43656;57.746;11.780;2023-02-23T02:04:07;101080.03;;;5.94;83.21
57827;BME280;43656;57.746;11.780;2023-02-23T02:06:34;101064.28;;;5.91;83.85
57827;BME280;43656;57.746;11.780;2023-02-23T02:09:04;101067.50;;;5.95;83.93
57827;BME280;43656;57.746;11.780;2023-02-23T02:11:32;101051.44;;;5.86;84.05
57827;BME280;43656;57.746;11.780;2023-02-23T02:14:42;101062.34;;;5.93;84.52
57827;BME280;43656;57.746;11.780;2023-02-23T02:17:15;101053.59;;;5.91;84.76
57827;BME280;43656;57.746;11.780;2023-02-23T02:20:21;101042.78;;;5.93;84.80
57827;BME280;43656;57.746;11.780;2023-02-23T02:28:36;101034.91;;;5.91;85.71
57827;BME280;43656;57.746;11.780;2023-02-23T02:31:29;101036.47;;;5.94;85.96
57827;BME280;43656;57.746;11.780;2023-02-23T02:45:10;101023.22;;;5.92;86.38
57827;BME280;43656;57.746;11.780;2023-02-23T02:47:44;101026.28;;;5.97;86.46
57827;BME280;43656;57.746;11.780;2023-02-23T02:50:19;101007.84;;;5.86;86.53
57827;BME280;43656;57.746;11.780;2023-02-23T02:52:54;101009.22;;;5.90;86.74
57827;BME280;43656;57.746;11.780;2023-02-23T02:55:25;101023.44;;;5.99;87.12
57827;BME280;43656;57.746;11.780;2023-02-23T02:57:56;101015.22;;;5.92;87.23
57827;BME280;43656;57.746;11.780;2023-02-23T03:00:41;101027.28;;;6.04;87.33
57827;BME280;43656;57.746;11.780;2023-02-23T03:03:44;101016.59;;;6.04;87.64
57827;BME280;43656;57.746;11.780;2023-02-23T03:06:42;101006.75;;;6.05;87.31
57827;BME280;43656;57.746;11.780;2023-02-23T03:09:44;100994.06;;;5.99;87.67
57827;BME280;43656;57.746;11.780;2023-02-23T03:13:14;100989.22;;;5.94;88.32
57827;BME280;43656;57.746;11.780;2023-02-23T03:16:03;100975.19;;;6.08;87.92
57827;BME280;43656;57.746;11.780;2023-02-23T03:18:57;100981.19;;;5.94;88.33
57827;BME280;43656;57.746;11.780;2023-02-23T03:21:55;100988.38;;;6.02;88.27
57827;BME280;43656;57.746;11.780;2023-02-23T03:24:46;100983.88;;;6.02;88.51
57827;BME280;43656;57.746;11.780;2023-02-23T03:27:43;100989.72;;;5.98;89.55
57827;BME280;43656;57.746;11.780;2023-02-23T03:36:24;100976.56;;;6.13;88.90
57827;BME280;43656;57.746;11.780;2023-02-23T03:39:23;100967.88;;;6.10;89.23
57827;BME280;43656;57.746;11.780;2023-02-23T03:42:12;100976.56;;;6.13;89.01
57827;BME280;43656;57.746;11.780;2023-02-23T03:45:03;100965.19;;;6.10;89.27
57827;BME280;43656;57.746;11.780;2023-02-23T03:47:49;100974.22;;;6.09;89.53
57827;BME280;43656;57.746;11.780;2023-02-23T03:50:40;100967.00;;;6.02;90.05
57827;BME280;43656;57.746;11.780;2023-02-23T03:53:32;100966.53;;;6.06;89.99
57827;BME280;43656;57.746;11.780;2023-02-23T03:56:20;100948.31;;;6.02;90.19
57827;BME280;43656;57.746;11.780;2023-02-23T03:59:09;100924.78;;;5.97;89.70
57827;BME280;43656;57.746;11.780;2023-02-23T04:01:54;100947.34;;;6.03;90.53
57827;BME280;43656;57.746;11.780;2023-02-23T04:04:41;100946.16;;;6.14;90.37
57827;BME280;43656;57.746;11.780;2023-02-23T04:07:27;100950.19;;;6.09;90.09
57827;BME280;43656;57.746;11.780;2023-02-23T04:10:12;100947.00;;;6.14;90.30
57827;BME280;43656;57.746;11.780;2023-02-23T04:13:03;100936.13;;;6.16;90.66
57827;BME280;43656;57.746;11.780;2023-02-23T04:15:56;100942.47;;;6.15;91.57
57827;BME280;43656;57.746;11.780;2023-02-23T04:18:24;100932.97;;;6.20;91.12
57827;BME280;43656;57.746;11.780;2023-02-23T04:20:50;100935.81;;;6.27;90.71
57827;BME280;43656;57.746;11.780;2023-02-23T04:23:16;100932.63;;;6.23;90.65
57827;BME280;43656;57.746;11.780;2023-02-23T04:25:42;100913.44;;;6.11;90.78
57827;BME280;43656;57.746;11.780;2023-02-23T04:28:08;100911.41;;;6.05;91.16
57827;BME280;43656;57.746;11.780;2023-02-23T04:30:33;100921.78;;;6.25;91.44
57827;BME280;43656;57.746;11.780;2023-02-23T04:32:59;100923.47;;;6.26;91.76
57827;BME280;43656;57.746;11.780;2023-02-23T04:35:25;100919.78;;;6.27;91.54
57827;BME280;43656;57.746;11.780;2023-02-23T04:37:53;100917.75;;;6.29;91.73
57827;BME280;43656;57.746;11.780;2023-02-23T04:40:18;100914.75;;;6.24;91.98
57827;BME280;43656;57.746;11.780;2023-02-23T04:42:44;100906.91;;;6.30;92.10
57827;BME280;43656;57.746;11.780;2023-02-23T04:45:10;100913.41;;;6.28;92.51
57827;BME280;43656;57.746;11.780;2023-02-23T04:47:35;100915.41;;;6.34;92.34
57827;BME280;43656;57.746;11.780;2023-02-23T04:50:01;100914.59;;;6.25;92.81
57827;BME280;43656;57.746;11.780;2023-02-23T04:52:26;100915.09;;;6.37;92.45
57827;BME280;43656;57.746;11.780;2023-02-23T04:54:52;100914.75;;;6.40;92.34
57827;BME280;43656;57.746;11.780;2023-02-23T04:57:17;100889.88;;;6.23;92.68
57827;BME280;43656;57.746;11.780;2023-02-23T04:59:43;100920.75;;;6.42;92.78
57827;BME280;43656;57.746;11.780;2023-02-23T05:02:08;100909.56;;;6.39;93.02
57827;BME280;43656;57.746;11.780;2023-02-23T05:04:34;100849.63;;;6.08;92.47
57827;BME280;43656;57.746;11.780;2023-02-23T05:07:00;100909.72;;;6.53;92.77
57827;BME280;43656;57.746;11.780;2023-02-23T05:09:26;100908.25;;;6.43;93.27
57827;BME280;43656;57.746;11.780;2023-02-23T05:11:51;100906.69;;;6.48;93.06
57827;BME280;43656;57.746;11.780;2023-02-23T05:14:16;100887.00;;;6.41;93.24
57827;BME280;43656;57.746;11.780;2023-02-23T05:16:42;100895.84;;;6.42;94.03
57827;BME280;43656;57.746;11.780;2023-02-23T05:19:07;100888.19;;;6.47;93.77
57827;BME280;43656;57.746;11.780;2023-02-23T05:21:33;100899.38;;;6.50;93.65
57827;BME280;43656;57.746;11.780;2023-02-23T05:23:58;100884.81;;;6.45;94.28
57827;BME280;43656;57.746;11.780;2023-02-23T05:26:24;100887.16;;;6.56;93.80
57827;BME280;43656;57.746;11.780;2023-02-23T05:28:49;100888.81;;;6.57;94.39
57827;BME280;43656;57.746;11.780;2023-02-23T05:31:15;100888.66;;;6.50;94.70
57827;BME280;43656;57.746;11.780;2023-02-23T05:33:41;100895.03;;;6.49;95.03
57827;BME280;43656;57.746;11.780;2023-02-23T05:36:08;100898.69;;;6.48;95.64
57827;BME280;43656;57.746;11.780;2023-02-23T05:38:35;100894.88;;;6.43;96.13
57827;BME280;43656;57.746;11.780;2023-02-23T05:41:05;100889.50;;;6.51;95.86
57827;BME280;43656;57.746;11.780;2023-02-23T05:43:30;100891.66;;;6.55;95.36
57827;BME280;43656;57.746;11.780;2023-02-23T05:45:56;100894.16;;;6.57;95.29
57827;BME280;43656;57.746;11.780;2023-02-23T05:48:21;100894.50;;;6.54;95.39
57827;BME280;43656;57.746;11.780;2023-02-23T05:50:47;100885.63;;;6.62;95.23
57827;BME280;43656;57.746;11.780;2023-02-23T05:53:13;100887.13;;;6.64;95.65
57827;BME280;43656;57.746;11.780;2023-02-23T05:55:38;100890.81;;;6.63;95.95
57827;BME280;43656;57.746;11.780;2023-02-23T05:58:04;100879.25;;;6.71;95.12
57827;BME280;43656;57.746;11.780;2023-02-23T06:00:29;100878.91;;;6.74;95.30
57827;BME280;43656;57.746;11.780;2023-02-23T06:02:55;100878.56;;;6.77;95.29
57827;BME280;43656;57.746;11.780;2023-02-23T06:05:20;100871.56;;;6.76;95.61
57827;BME280;43656;57.746;11.780;2023-02-23T06:07:46;100871.69;;;6.82;95.49
57827;BME280;43656;57.746;11.780;2023-02-23T06:10:12;100861.16;;;6.81;95.47
57827;BME280;43656;57.746;11.780;2023-02-23T06:12:38;100859.16;;;6.83;95.65
57827;BME280;43656;57.746;11.780;2023-02-23T06:15:04;100847.50;;;6.68;96.24
57827;BME280;43656;57.746;11.780;2023-02-23T06:17:30;100855.16;;;6.79;96.17
57827;BME280;43656;57.746;11.780;2023-02-23T06:19:56;100856.97;;;6.87;95.81
57827;BME280;43656;57.746;11.780;2023-02-23T06:22:23;100853.13;;;6.89;95.92
57827;BME280;43656;57.746;11.780;2023-02-23T06:24:48;100833.78;;;6.79;96.04
57827;BME280;43656;57.746;11.780;2023-02-23T06:27:14;100834.75;;;6.86;95.68
57827;BME280;43656;57.746;11.780;2023-02-23T06:29:39;100841.41;;;6.90;96.29
57827;BME280;43656;57.746;11.780;2023-02-23T06:32:05;100853.56;;;7.01;96.32
57827;BME280;43656;57.746;11.780;2023-02-23T06:34:31;100858.56;;;7.04;96.39
57827;BME280;43656;57.746;11.780;2023-02-23T06:36:58;100852.38;;;7.03;96.84
57827;BME280;43656;57.746;11.780;2023-02-23T06:39:23;100851.34;;;7.13;96.58
57827;BME280;43656;57.746;11.780;2023-02-23T06:41:48;100846.34;;;7.10;96.22
57827;BME280;43656;57.746;11.780;2023-02-23T06:44:14;100860.34;;;7.12;96.90
57827;BME280;43656;57.746;11.780;2023-02-23T06:46:39;100836.81;;;7.07;96.85
57827;BME280;43656;57.746;11.780;2023-02-23T06:49:05;100857.47;;;7.21;96.60
57827;BME280;43656;57.746;11.780;2023-02-23T06:51:30;100860.34;;;7.12;97.20
57827;BME280;43656;57.746;11.780;2023-02-23T06:53:56;100858.00;;;7.17;97.57
57827;BME280;43656;57.746;11.780;2023-02-23T06:56:21;100859.66;;;7.18;97.66
57827;BME280;43656;57.746;11.780;2023-02-23T06:58:47;100850.44;;;7.20;97.08
57827;BME280;43656;57.746;11.780;2023-02-23T07:01:13;100856.94;;;7.26;97.51
57827;BME280;43656;57.746;11.780;2023-02-23T07:03:40;100836.94;;;7.14;97.89
57827;BME280;43656;57.746;11.780;2023-02-23T07:06:05;100855.72;;;7.37;97.62
57827;BME280;43656;57.746;11.780;2023-02-23T07:08:32;100851.03;;;7.39;97.54
57827;BME280;43656;57.746;11.780;2023-02-23T07:11:08;100834.03;;;7.23;97.63
57827;BME280;43656;57.746;11.780;2023-02-23T07:13:34;100827.66;;;7.24;97.66
57827;BME280;43656;57.746;11.780;2023-02-23T07:16:00;100860.47;;;7.49;97.66
57827;BME280;43656;57.746;11.780;2023-02-23T07:18:26;100863.78;;;7.51;97.20
57827;BME280;43656;57.746;11.780;2023-02-23T07:20:51;100830.25;;;7.41;97.51
57827;BME280;43656;57.746;11.780;2023-02-23T07:23:17;100846.75;;;7.52;97.57
57827;BME280;43656;57.746;11.780;2023-02-23T07:25:42;100837.41;;;7.48;97.68
57827;BME280;43656;57.746;11.780;2023-02-23T07:28:09;100838.88;;;7.51;98.22
57827;BME280;43656;57.746;11.780;2023-02-23T07:30:34;100848.50;;;7.60;97.69
57827;BME280;43656;57.746;11.780;2023-02-23T07:32:59;100854.91;;;7.59;98.57
57827;BME280;43656;57.746;11.780;2023-02-23T07:35:25;100744.44;;;6.88;97.44
57827;BME280;43656;57.746;11.780;2023-02-23T07:37:50;100863.88;;;7.66;97.75
57827;BME280;43656;57.746;11.780;2023-02-23T07:40:16;100860.00;;;7.69;97.84
57827;BME280;43656;57.746;11.780;2023-02-23T07:42:43;100858.31;;;7.68;97.79
57827;BME280;43656;57.746;11.780;2023-02-23T07:45:09;100854.66;;;7.69;98.45
57827;BME280;43656;57.746;11.780;2023-02-23T07:47:35;100857.63;;;7.74;97.83
57827;BME280;43656;57.746;11.780;2023-02-23T07:50:01;100854.34;;;7.64;98.44
57827;BME280;43656;57.746;11.780;2023-02-23T07:52:27;100858.78;;;7.71;98.74
57827;BME280;43656;57.746;11.780;2023-02-23T07:54:53;100862.63;;;7.77;98.21
57827;BME280;43656;57.746;11.780;2023-02-23T07:57:20;100850.25;;;7.76;98.19
57827;BME280;43656;57.746;11.780;2023-02-23T07:59:48;100856.22;;;7.78;98.09
57827;BME280;43656;57.746;11.780;2023-02-23T08:02:14;100850.75;;;7.71;99.46
57827;BME280;43656;57.746;11.780;2023-02-23T08:04:41;100855.41;;;7.77;98.92
57827;BME280;43656;57.746;11.780;2023-02-23T08:07:08;100794.72;;;7.47;98.62
57827;BME280;43656;57.746;11.780;2023-02-23T08:09:33;100857.00;;;7.87;98.52
57827;BME280;43656;57.746;11.780;2023-02-23T08:12:00;100849.19;;;7.85;98.65
57827;BME280;43656;57.746;11.780;2023-02-23T08:14:27;100841.50;;;7.82;98.90
57827;BME280;43656;57.746;11.780;2023-02-23T08:16:53;100840.66;;;7.82;99.13
57827;BME280;43656;57.746;11.780;2023-02-23T08:19:19;100833.22;;;7.92;98.49
57827;BME280;43656;57.746;11.780;2023-02-23T08:21:49;100829.69;;;7.91;98.63
57827;BME280;43656;57.746;11.780;2023-02-23T08:24:15;100821.06;;;7.81;98.94
57827;BME280;43656;57.746;11.780;2023-02-23T08:26:40;100826.53;;;7.88;99.01
57827;BME280;43656;57.746;11.780;2023-02-23T08:29:06;100834.31;;;7.97;98.62
57827;BME280;43656;57.746;11.780;2023-02-23T08:31:32;100844.41;;;7.95;99.57
57827;BME280;43656;57.746;11.780;2023-02-23T08:33:58;100808.16;;;7.85;98.96
57827;BME280;43656;57.746;11.780;2023-02-23T08:36:23;100828.88;;;8.06;98.48
57827;BME280;43656;57.746;11.780;2023-02-23T08:38:49;100824.91;;;8.02;99.13
57827;BME280;43656;57.746;11.780;2023-02-23T08:41:15;100813.72;;;7.98;98.38
57827;BME280;43656;57.746;11.780;2023-02-23T08:43:41;100834.53;;;8.11;98.71
57827;BME280;43656;57.746;11.780;2023-02-23T08:46:06;100832.50;;;8.13;99.08
57827;BME280;43656;57.746;11.780;2023-02-23T08:48:32;100819.47;;;8.10;98.72
57827;BME280;43656;57.746;11.780;2023-02-23T08:50:58;100827.81;;;8.15;99.28
57827;BME280;43656;57.746;11.780;2023-02-23T08:53:25;100824.84;;;8.24;99.21
57827;BME280;43656;57.746;11.780;2023-02-23T08:55:58;100814.59;;;8.28;98.67
57827;BME280;43656;57.746;11.780;2023-02-23T08:58:26;100822.81;;;8.27;98.47
57827;BME280;43656;57.746;11.780;2023-02-23T09:00:52;100819.59;;;8.31;98.69
57827;BME280;43656;57.746;11.780;2023-02-23T09:03:19;100825.59;;;8.33;99.09
57827;BME280;43656;57.746;11.780;2023-02-23T09:05:44;100812.00;;;8.35;99.02
57827;BME280;43656;57.746;11.780;2023-02-23T09:08:11;100816.16;;;8.37;99.11
57827;BME280;43656;57.746;11.780;2023-02-23T09:10:37;100803.25;;;8.41;99.33
57827;BME280;43656;57.746;11.780;2023-02-23T09:13:02;100804.09;;;8.41;99.38
57827;BME280;43656;57.746;11.780;2023-02-23T09:15:29;100802.34;;;8.49;99.31
57827;BME280;43656;57.746;11.780;2023-02-23T09:17:59;100801.97;;;8.52;99.59
57827;BME280;43656;57.746;11.780;2023-02-23T09:20:25;100782.00;;;8.39;99.43
57827;BME280;43656;57.746;11.780;2023-02-23T09:22:51;100800.94;;;8.53;99.74
57827;BME280;43656;57.746;11.780;2023-02-23T09:25:18;100804.44;;;8.53;99.39
57827;BME280;43656;57.746;11.780;2023-02-23T09:27:48;100805.72;;;8.57;99.02
57827;BME280;43656;57.746;11.780;2023-02-23T09:30:15;100783.56;;;8.49;99.75
57827;BME280;43656;57.746;11.780;2023-02-23T09:32:49;100800.81;;;8.61;99.49
57827;BME280;43656;57.746;11.780;2023-02-23T09:35:16;100794.63;;;8.60;99.20
57827;BME280;43656;57.746;11.780;2023-02-23T09:37:53;100799.16;;;8.60;99.47
57827;BME280;43656;57.746;11.780;2023-02-23T09:40:21;100796.69;;;8.58;99.80
57827;BME280;43656;57.746;11.780;2023-02-23T09:47:56;100794.34;;;8.70;99.85
57827;BME280;43656;57.746;11.780;2023-02-23T09:50:29;100794.72;;;8.67;99.97
57827;BME280;43656;57.746;11.780;2023-02-23T09:53:02;100797.78;;;8.64;100.00
57827;BME280;43656;57.746;11.780;2023-02-23T09:55:31;100792.03;;;8.67;99.55
57827;BME280;43656;57.746;11.780;2023-02-23T09:58:04;100794.44;;;8.77;99.56
57827;BME280;43656;57.746;11.780;2023-02-23T10:00:39;100786.75;;;8.74;99.99
57827;BME280;43656;57.746;11.780;2023-02-23T10:05:46;100783.16;;;8.81;99.89
57827;BME280;43656;57.746;11.780;2023-02-23T10:10:50;100774.72;;;8.84;99.33
57827;BME280;43656;57.746;11.780;2023-02-23T10:13:50;100757.84;;;8.90;99.31
57827;BME280;43656;57.746;11.780;2023-02-23T10:22:03;100754.56;;;9.10;99.22
57827;BME280;43656;57.746;11.780;2023-02-23T10:24:41;100763.50;;;9.17;98.87
57827;BME280;43656;57.746;11.780;2023-02-23T10:27:19;100761.47;;;9.19;98.90
57827;BME280;43656;57.746;11.780;2023-02-23T10:29:51;100758.41;;;9.22;99.15
57827;BME280;43656;57.746;11.780;2023-02-23T10:32:36;100757.00;;;9.26;98.77
57827;BME280;43656;57.746;11.780;2023-02-23T10:35:14;100755.94;;;9.21;99.29
57827;BME280;43656;57.746;11.780;2023-02-23T10:37:40;100762.50;;;9.18;99.06
57827;BME280;43656;57.746;11.780;2023-02-23T10:40:14;100757.59;;;9.22;100.00
57827;BME280;43656;57.746;11.780;2023-02-23T10:42:40;100754.50;;;9.25;99.79
57827;BME280;43656;57.746;11.780;2023-02-23T10:45:15;100738.06;;;9.13;99.72
57827;BME280;43656;57.746;11.780;2023-02-23T10:47:44;100745.69;;;9.09;99.63
57827;BME280;43656;57.746;11.780;2023-02-23T10:50:10;100751.03;;;9.09;99.78
57827;BME280;43656;57.746;11.780;2023-02-23T10:52:44;100754.56;;;9.10;99.89
57827;BME280;43656;57.746;11.780;2023-02-23T10:55:25;100731.66;;;8.92;100.00
57827;BME280;43656;57.746;11.780;2023-02-23T10:58:19;100748.56;;;9.08;100.00
57827;BME280;43656;57.746;11.780;2023-02-23T11:03:25;100733.09;;;9.10;99.88
57827;BME280;43656;57.746;11.780;2023-02-23T11:05:51;100747.28;;;9.25;100.00
57827;BME280;43656;57.746;11.780;2023-02-23T11:11:02;100740.78;;;9.34;99.83
57827;BME280;43656;57.746;11.780;2023-02-23T11:13:42;100751.19;;;9.44;99.61
57827;BME280;43656;57.746;11.780;2023-02-23T11:16:14;100739.75;;;9.35;99.99
57827;BME280;43656;57.746;11.780;2023-02-23T11:18:47;100743.06;;;9.37;100.00
57827;BME280;43656;57.746;11.780;2023-02-23T11:21:21;100745.16;;;9.42;100.00
57827;BME280;43656;57.746;11.780;2023-02-23T11:23:50;100742.75;;;9.47;100.00
57827;BME280;43656;57.746;11.780;2023-02-23T11:26:28;100740.06;;;9.47;100.00
57827;BME280;43656;57.746;11.780;2023-02-23T11:28:58;100741.81;;;9.61;100.00
57827;BME280;43656;57.746;11.780;2023-02-23T11:31:32;100700.09;;;9.37;100.00
57827;BME280;43656;57.746;11.780;2023-02-23T11:34:00;100730.63;;;9.58;100.00
57827;BME280;43656;57.746;11.780;2023-02-23T11:36:29;100732.44;;;9.51;100.00
57827;BME280;43656;57.746;11.780;2023-02-23T11:42:12;100733.16;;;9.66;99.92
57827;BME280;43656;57.746;11.780;2023-02-23T11:44:39;100731.13;;;9.68;100.00
57827;BME280;43656;57.746;11.780;2023-02-23T11:47:05;100735.84;;;9.66;100.00
57827;BME280;43656;57.746;11.780;2023-02-23T11:49:35;100728.97;;;9.57;100.00
57827;BME280;43656;57.746;11.780;2023-02-23T11:52:11;100723.84;;;9.62;100.00
57827;BME280;43656;57.746;11.780;2023-02-23T11:54:39;100727.34;;;9.62;100.00
57827;BME280;43656;57.746;11.780;2023-02-23T11:57:23;100726.69;;;9.54;100.00
57827;BME280;43656;57.746;11.780;2023-02-23T11:59:51;100717.97;;;9.52;100.00
57827;BME280;43656;57.746;11.780;2023-02-23T12:02:25;100720.06;;;9.56;100.00
57827;BME280;43656;57.746;11.780;2023-02-23T12:07:40;100719.91;;;9.58;100.00
57827;BME280;43656;57.746;11.780;2023-02-23T12:10:31;100715.00;;;9.68;100.00
57827;BME280;43656;57.746;11.780;2023-02-23T12:26:57;100703.56;;;9.87;100.00
57827;BME280;43656;57.746;11.780;2023-02-23T12:29:33;100698.16;;;9.81;100.00
57827;BME280;43656;57.746;11.780;2023-02-23T12:32:08;100696.56;;;9.93;100.00
57827;BME280;43656;57.746;11.780;2023-02-23T12:34:53;100704.06;;;9.98;100.00
57827;BME280;43656;57.746;11.780;2023-02-23T12:37:46;100701.41;;;10.04;100.00
57827;BME280;43656;57.746;11.780;2023-02-23T12:40:25;100691.22;;;10.00;100.00
57827;BME280;43656;57.746;11.780;2023-02-23T12:42:59;100686.66;;;9.94;100.00
57827;BME280;43656;57.746;11.780;2023-02-23T12:48:18;100700.63;;;9.82;100.00
57827;BME280;43656;57.746;11.780;2023-02-23T12:50:51;100700.59;;;9.76;100.00
57827;BME280;43656;57.746;11.780;2023-02-23T12:53:36;100699.16;;;9.80;100.00
57827;BME280;43656;57.746;11.780;2023-02-23T12:58:38;100695.13;;;9.91;100.00
57827;BME280;43656;57.746;11.780;2023-02-23T13:01:30;100686.41;;;9.88;100.00
57827;BME280;43656;57.746;11.780;2023-02-23T13:07:23;100680.44;;;9.93;100.00
57827;BME280;43656;57.746;11.780;2023-02-23T13:10:28;100686.03;;;9.92;100.00
57827;BME280;43656;57.746;11.780;2023-02-23T13:13:21;100660.19;;;9.91;100.00
57827;BME280;43656;57.746;11.780;2023-02-23T13:16:17;100674.31;;;10.06;100.00
57827;BME280;43656;57.746;11.780;2023-02-23T13:21:43;100609.59;;;9.66;100.00
57827;BME280;43656;57.746;11.780;2023-02-23T13:24:16;100672.25;;;10.08;100.00
57827;BME280;43656;57.746;11.780;2023-02-23T13:26:59;100676.38;;;10.04;100.00
57827;BME280;43656;57.746;11.780;2023-02-23T13:31:57;100659.19;;;9.98;100.00
57827;BME280;43656;57.746;11.780;2023-02-23T13:34:30;100630.44;;;9.99;100.00
57827;BME280;43656;57.746;11.780;2023-02-23T13:36:59;100647.09;;;10.22;100.00
57827;BME280;43656;57.746;11.780;2023-02-23T13:42:55;100638.66;;;10.32;100.00
57827;BME280;43656;57.746;11.780;2023-02-23T13:45:48;100645.91;;;10.31;100.00
57827;BME280;43656;57.746;11.780;2023-02-23T13:48:44;100638.91;;;10.37;100.00
57827;BME280;43656;57.746;11.780;2023-02-23T13:51:31;100618.25;;;10.51;100.00
57827;BME280;43656;57.746;11.780;2023-02-23T13:56:57;100612.09;;;10.70;100.00
57827;BME280;43656;57.746;11.780;2023-02-23T13:59:27;100604.19;;;10.62;100.00
57827;BME280;43656;57.746;11.780;2023-02-23T14:02:18;100612.06;;;10.57;100.00
57827;BME280;43656;57.746;11.780;2023-02-23T14:04:48;100608.72;;;10.48;100.00
57827;BME280;43656;57.746;11.780;2023-02-23T14:07:27;100603.53;;;10.33;100.00
57827;BME280;43656;57.746;11.780;2023-02-23T14:09:58;100598.44;;;10.10;100.00
57827;BME280;43656;57.746;11.780;2023-02-23T14:12:39;100584.19;;;10.10;100.00
57827;BME280;43656;57.746;11.780;2023-02-23T14:20:51;100600.09;;;10.11;100.00
57827;BME280;43656;57.746;11.780;2023-02-23T14:25:45;100604.69;;;9.76;100.00
57827;BME280;43656;57.746;11.780;2023-02-23T14:28:47;100600.75;;;9.72;100.00
57827;BME280;43656;57.746;11.780;2023-02-23T14:31:33;100603.34;;;9.59;100.00
57827;BME280;43656;57.746;11.780;2023-02-23T14:34:06;100606.63;;;9.54;100.00
57827;BME280;43656;57.746;11.780;2023-02-23T14:36:37;100609.84;;;9.43;100.00
57827;BME280;43656;57.746;11.780;2023-02-23T14:39:12;100607.84;;;8.96;100.00
57827;BME280;43656;57.746;11.780;2023-02-23T14:41:46;100602.56;;;8.59;100.00
57827;BME280;43656;57.746;11.780;2023-02-23T14:47:02;100588.03;;;8.17;100.00
57827;BME280;43656;57.746;11.780;2023-02-23T14:49:31;100605.44;;;8.21;100.00